Time;durP1;ratioP1;P1;durP2;ratioP2;P2;SDS_P1;SDS_P2;PMS_P1;PMS_P2;Temp;Humidity;BMP_temperature;BMP_pressure;BME280_temperature;BME280_humidity;BME280_pressure;Samples;Min_cycle;Max_cycle;Signal;HPM_P1;HPM_P2
2022/01/14 00:00:32;;;;;;;36.47;22.17;;;;;;;-6.01;100.00;96073.41;10388749;28;20510;-76
2022/01/14 00:05:32;;;;;;;33.88;19.13;;;;;;;-6.02;100.00;96059.47;10388969;28;20108;-71
2022/01/14 00:10:35;;;;;;;43.50;24.27;;;;;;;-5.88;100.00;96058.22;10388898;28;20476;-73
2022/01/14 00:15:35;;;;;;;38.75;24.15;;;;;;;-5.90;100.00;96056.69;10392281;28;20196;-71
2022/01/14 00:20:36;;;;;;;39.63;20.92;;;;;;;-5.89;100.00;96076.66;10347747;28;20562;-73
2022/01/14 00:36:14;;;;;;;26.83;17.65;;;;;;;-5.68;100.00;96098.31;10363918;28;20037;-74
2022/01/14 00:41:15;;;;;;;23.75;16.00;;;;;;;-5.84;100.00;96093.63;10362911;28;20026;-75
2022/01/14 00:46:15;;;;;;;43.60;20.80;;;;;;;-5.79;100.00;96087.16;10346426;28;20465;-71
2022/01/14 00:51:16;;;;;;;35.25;17.20;;;;;;;-5.71;100.00;96082.03;10347482;28;20034;-75
2022/01/14 00:56:27;;;;;;;31.52;15.98;;;;;;;-5.71;100.00;96082.88;10386339;28;20037;-69
2022/01/14 01:01:27;;;;;;;34.05;18.55;;;;;;;-5.64;100.00;96087.56;10385672;28;20052;-75
2022/01/14 01:06:28;;;;;;;44.88;24.42;;;;;;;-5.64;100.00;96088.38;10385706;28;20129;-71
2022/01/14 01:11:34;;;;;;;30.60;23.27;;;;;;;-5.61;100.00;96080.28;10386272;28;20029;-74
2022/01/14 01:16:35;;;;;;;28.65;17.08;;;;;;;-5.58;100.00;96061.66;10402945;28;20109;-75
2022/01/14 01:21:36;;;;;;;50.03;23.58;;;;;;;-5.53;100.00;96062.03;10403580;28;20132;-75
2022/01/14 01:26:40;;;;;;;32.90;17.17;;;;;;;-5.49;100.00;96047.69;10389328;28;20484;-75
2022/01/14 01:31:42;;;;;;;28.92;17.17;;;;;;;-5.40;100.00;96035.56;10360518;28;20022;-75
2022/01/14 01:36:47;;;;;;;24.13;17.23;;;;;;;-5.43;100.00;96048.91;10362219;28;20077;-71
2022/01/14 01:41:50;;;;;;;31.63;16.95;;;;;;;-5.39;100.00;96042.44;10362322;28;20021;-79
2022/01/14 01:46:52;;;;;;;24.42;17.27;;;;;;;-5.42;100.00;96029.63;10344088;28;20029;-73
2022/01/14 01:51:53;;;;;;;32.35;24.25;;;;;;;-5.39;100.00;96023.28;10359672;28;20037;-74
2022/01/14 01:56:55;;;;;;;34.25;22.50;;;;;;;-5.44;100.00;96022.88;10361364;28;20026;-71
2022/01/14 02:01:58;;;;;;;27.05;17.80;;;;;;;-5.33;100.00;96020.06;10343756;28;20551;-74
2022/01/14 02:06:59;;;;;;;32.17;20.98;;;;;;;-5.37;100.00;96011.69;10361224;28;20064;-76
2022/01/14 02:11:59;;;;;;;41.00;17.00;;;;;;;-5.36;100.00;95992.38;10343335;28;20055;-72
2022/01/14 02:22:11;;;;;;;30.02;17.30;;;;;;;-5.38;100.00;95983.84;10362768;28;20369;-76
2022/01/14 02:27:12;;;;;;;40.97;20.08;;;;;;;-5.42;100.00;95974.59;10344091;28;20451;-70
2022/01/14 02:32:12;;;;;;;36.63;20.23;;;;;;;-5.29;100.00;95971.66;10360158;28;20093;-73
2022/01/14 02:37:16;;;;;;;32.05;15.95;;;;;;;-5.28;100.00;95973.31;10365180;28;20458;-76
2022/01/14 02:42:16;;;;;;;30.85;16.67;;;;;;;-5.29;100.00;95976.09;10341634;28;20482;-72
2022/01/14 02:47:17;;;;;;;42.53;17.85;;;;;;;-5.35;100.00;95964.38;10358623;28;20018;-76
2022/01/14 02:52:28;;;;;;;28.33;20.92;;;;;;;-5.27;100.00;95961.06;10342599;28;20423;-79
2022/01/14 02:57:30;;;;;;;44.50;25.85;;;;;;;-5.32;100.00;95954.47;10342093;28;20070;-75
2022/01/14 03:02:31;;;;;;;31.73;18.00;;;;;;;-5.36;100.00;95947.84;10341833;28;20117;-73
2022/01/14 03:07:32;;;;;;;29.73;19.23;;;;;;;-5.41;100.00;95936.16;10358449;28;20025;-77
2022/01/14 03:12:34;;;;;;;37.28;20.48;;;;;;;-5.49;100.00;95931.63;10341992;28;20657;-72
2022/01/14 03:17:35;;;;;;;36.70;18.05;;;;;;;-5.46;100.00;95918.22;10341839;28;20030;-74
2022/01/14 03:22:36;;;;;;;35.75;22.63;;;;;;;-5.42;100.00;95921.41;10341969;28;20026;-74
2022/01/14 03:27:36;;;;;;;29.70;18.42;;;;;;;-5.37;100.00;95901.66;10359043;28;20499;-71
2022/01/14 03:32:37;;;;;;;27.75;16.17;;;;;;;-5.35;100.00;95894.47;10341485;28;20021;-74
2022/01/14 03:37:38;;;;;;;32.63;17.58;;;;;;;-5.33;100.00;95903.00;10341844;28;20373;-76
2022/01/14 03:42:38;;;;;;;39.97;18.83;;;;;;;-5.31;100.00;95892.38;10357845;28;20120;-71
2022/01/14 03:47:39;;;;;;;27.00;15.25;;;;;;;-5.25;100.00;95883.13;10358478;28;20075;-74
2022/01/14 03:52:39;;;;;;;30.30;19.05;;;;;;;-5.24;100.00;95887.41;10340515;28;20041;-71
2022/01/14 03:57:40;;;;;;;32.45;15.73;;;;;;;-5.18;100.00;95881.56;10362667;28;20030;-74
2022/01/14 04:02:40;;;;;;;26.58;18.20;;;;;;;-5.16;100.00;95888.31;10385250;28;20574;-75
2022/01/14 04:07:41;;;;;;;32.92;18.08;;;;;;;-5.11;100.00;95895.72;10388163;28;20472;-70
2022/01/14 04:17:48;;;;;;;35.45;19.73;;;;;;;-5.18;100.00;95869.28;10405613;28;20065;-76
2022/01/14 04:22:48;;;;;;;24.88;12.65;;;;;;;-5.11;100.00;95858.22;10404721;28;20116;-76
2022/01/14 04:27:49;;;;;;;34.60;13.48;;;;;;;-5.13;100.00;95855.75;10388170;28;20025;-73
2022/01/14 04:32:49;;;;;;;23.67;16.70;;;;;;;-5.13;100.00;95863.59;10387369;28;20451;-76
2022/01/14 04:37:50;;;;;;;29.33;14.80;;;;;;;-5.08;100.00;95871.84;10371129;28;20063;-75
2022/01/14 04:42:52;;;;;;;25.88;14.10;;;;;;;-5.00;100.00;95869.28;10386462;28;20036;-71
2022/01/14 04:47:53;;;;;;;35.80;19.23;;;;;;;-4.92;100.00;95870.38;10362381;28;20029;-70
2022/01/14 04:52:53;;;;;;;28.60;12.90;;;;;;;-5.06;100.00;95866.47;10362277;28;20033;-76
2022/01/14 04:57:56;;;;;;;33.33;19.75;;;;;;;-4.99;100.00;95867.50;10364266;28;20493;-79
2022/01/14 05:02:56;;;;;;;34.50;22.25;;;;;;;-5.09;100.00;95861.50;10366421;28;20047;-72
2022/01/14 05:07:57;;;;;;;32.85;16.95;;;;;;;-5.25;100.00;95849.88;10392947;28;20040;-71
2022/01/14 05:12:58;;;;;;;24.48;15.00;;;;;;;-5.19;100.00;95836.19;10381638;28;20084;-76
2022/01/14 05:17:58;;;;;;;34.92;17.73;;;;;;;-5.08;100.00;95843.03;10347763;28;20491;-71
2022/01/14 05:22:59;;;;;;;24.33;16.73;;;;;;;-5.08;100.00;95837.78;10390982;28;20025;-72
2022/01/14 05:27:59;;;;;;;35.17;16.10;;;;;;;-5.16;100.00;95846.38;10360881;28;20022;-77
2022/01/14 05:33:00;;;;;;;25.50;16.13;;;;;;;-5.10;100.00;95854.63;10381870;28;20040;-79
2022/01/14 05:38:00;;;;;;;25.90;15.45;;;;;;;-5.18;100.00;95844.88;10352960;28;20411;-80
2022/01/14 05:43:01;;;;;;;32.25;16.45;;;;;;;-5.26;100.00;95840.38;10372800;28;20039;-73
2022/01/14 05:48:02;;;;;;;33.08;17.35;;;;;;;-5.24;100.00;95835.81;10384192;28;20497;-76
2022/01/14 05:53:03;;;;;;;42.38;16.52;;;;;;;-5.08;100.00;95831.69;10383209;28;20120;-73
2022/01/14 05:58:03;;;;;;;39.97;19.92;;;;;;;-4.98;100.00;95832.47;10377879;28;20028;-76
2022/01/14 06:03:03;;;;;;;31.55;15.35;;;;;;;-4.89;100.00;95825.50;10387847;28;20025;-72
2022/01/14 06:08:05;;;;;;;26.65;13.30;;;;;;;-4.71;100.00;95821.06;10363811;28;20062;-72
2022/01/14 06:13:06;;;;;;;31.05;15.95;;;;;;;-4.52;100.00;95819.22;10374250;28;20061;-73
2022/01/14 06:18:07;;;;;;;30.75;17.77;;;;;;;-4.27;100.00;95824.66;10342607;28;20036;-72
2022/01/14 06:23:08;;;;;;;29.35;14.48;;;;;;;-3.93;100.00;95826.50;10359779;28;20029;-73
2022/01/14 06:28:08;;;;;;;29.98;15.48;;;;;;;-3.81;100.00;95820.00;10359288;28;20054;-76
2022/01/14 06:33:09;;;;;;;32.80;16.00;;;;;;;-3.66;100.00;95818.44;10359478;28;20033;-72
2022/01/14 06:38:10;;;;;;;32.38;16.70;;;;;;;-3.50;100.00;95819.47;10364017;28;20405;-72
2022/01/14 06:43:11;;;;;;;34.13;15.63;;;;;;;-3.53;100.00;95796.16;10399466;28;20119;-78
2022/01/14 06:48:11;;;;;;;29.83;15.05;;;;;;;-3.45;100.00;95799.66;10401533;28;20102;-74
2022/01/14 06:53:13;;;;;;;28.23;14.65;;;;;;;-3.48;100.00;95809.66;10398781;28;20029;-73
2022/01/14 06:58:13;;;;;;;32.80;14.55;;;;;;;-3.54;100.00;95797.97;10386675;28;20022;-77
2022/01/14 07:03:14;;;;;;;35.10;12.75;;;;;;;-3.46;100.00;95776.13;10358701;28;20030;-79
2022/01/14 07:08:14;;;;;;;26.20;12.77;;;;;;;-3.20;100.00;95770.78;10341364;28;20033;-74
2022/01/14 07:13:14;;;;;;;25.88;10.93;;;;;;;-2.93;100.00;95756.53;10342035;28;20057;-81
2022/01/14 07:18:16;;;;;;;20.95;11.73;;;;;;;-2.60;100.00;95753.06;10391470;28;20033;-74
2022/01/14 07:23:16;;;;;;;35.80;14.65;;;;;;;-2.41;100.00;95754.53;10398695;28;20283;-71
2022/01/14 07:28:17;;;;;;;25.20;13.90;;;;;;;-2.24;100.00;95757.94;10393297;28;20100;-75
2022/01/14 07:33:17;;;;;;;29.98;13.85;;;;;;;-2.11;100.00;95746.88;10401323;28;20049;-74
2022/01/14 07:38:18;;;;;;;25.40;12.50;;;;;;;-1.92;100.00;95749.13;10393439;28;20029;-73
2022/01/14 07:43:20;;;;;;;26.45;13.40;;;;;;;-1.65;100.00;95739.13;10389400;28;20407;-73
2022/01/14 07:48:21;;;;;;;22.92;10.38;;;;;;;-1.48;100.00;95728.53;10389585;28;20033;-76
2022/01/14 07:53:21;;;;;;;23.00;11.15;;;;;;;-1.29;100.00;95722.81;10388390;28;20402;-74
2022/01/14 07:58:22;;;;;;;26.42;11.35;;;;;;;-1.05;100.00;95724.47;10388848;28;20036;-78
2022/01/14 08:03:23;;;;;;;17.88;10.55;;;;;;;-1.02;100.00;95728.56;10388638;28;20032;-79
2022/01/14 08:08:23;;;;;;;32.83;13.55;;;;;;;-0.84;100.00;95725.63;10388065;28;20025;-75
2022/01/14 08:13:24;;;;;;;43.13;15.05;;;;;;;-0.72;100.00;95724.19;10370768;28;20064;-76
2022/01/14 08:18:24;;;;;;;29.27;13.93;;;;;;;-0.57;100.00;95708.41;10387774;28;20025;-73
2022/01/14 08:23:25;;;;;;;40.17;14.02;;;;;;;-0.47;100.00;95702.06;10387307;28;20033;-73
2022/01/14 08:28:26;;;;;;;29.88;12.02;;;;;;;-0.30;100.00;95690.31;10404301;28;20025;-73
2022/01/14 08:33:27;;;;;;;29.73;14.45;;;;;;;-0.32;100.00;95688.84;10386995;28;20029;-72
2022/01/14 08:38:27;;;;;;;20.23;11.15;;;;;;;-0.21;100.00;95683.09;10404806;28;20060;-75
2022/01/14 08:43:28;;;;;;;32.70;13.07;;;;;;;0.24;100.00;95668.06;10386537;28;20030;-77
2022/01/14 08:48:30;;;;;;;38.05;13.65;;;;;;;0.41;100.00;95670.47;10386378;28;20036;-72
2022/01/14 08:53:31;;;;;;;30.63;12.45;;;;;;;0.62;100.00;95664.41;10387071;28;20099;-76
2022/01/14 08:58:33;;;;;;;26.02;12.15;;;;;;;0.62;100.00;95667.84;10386606;28;20055;-77
2022/01/14 09:03:34;;;;;;;29.70;13.55;;;;;;;0.57;100.00;95653.56;10403973;28;20498;-78
2022/01/14 09:08:35;;;;;;;31.05;11.02;;;;;;;0.73;100.00;95653.31;10385822;28;20029;-72
2022/01/14 09:13:36;;;;;;;20.33;6.80;;;;;;;0.89;100.00;95640.84;10385665;28;20057;-77
2022/01/14 09:18:36;;;;;;;11.65;6.25;;;;;;;0.94;100.00;95631.31;10385778;28;20030;-74
2022/01/14 09:23:37;;;;;;;10.55;5.03;;;;;;;1.23;100.00;95626.88;10386246;28;20109;-79
2022/01/14 09:28:38;;;;;;;18.80;7.00;;;;;;;1.73;100.00;95602.94;10402649;28;20084;-77
2022/01/14 09:33:39;;;;;;;14.63;6.38;;;;;;;2.04;100.00;95594.50;10385619;28;20411;-80
2022/01/14 09:38:40;;;;;;;15.75;5.93;;;;;;;2.46;100.00;95583.81;10392636;28;20033;-72
2022/01/14 09:43:40;;;;;;;29.15;5.25;;;;;;;2.81;100.00;95588.16;10344725;28;20029;-73
2022/01/14 09:48:41;;;;;;;13.50;6.20;;;;;;;2.81;100.00;95582.84;10343815;28;20144;-73
2022/01/14 09:53:41;;;;;;;15.30;4.82;;;;;;;2.55;100.00;95577.31;10359118;28;20033;-73
2022/01/14 09:58:46;;;;;;;12.15;4.78;;;;;;;2.78;100.00;95568.16;10360806;28;20450;-73
2022/01/14 10:03:56;;;;;;;9.50;3.92;;;;;;;4.00;100.00;95519.03;10342945;28;20116;-77
2022/01/14 10:09:16;;;;;;;14.63;4.53;;;;;;;6.12;97.27;95512.03;10362103;28;20022;-72
2022/01/14 10:14:17;;;;;;;10.85;4.75;;;;;;;7.19;84.86;95515.75;10358985;28;20054;-76
2022/01/14 10:19:24;;;;;;;11.50;4.80;;;;;;;8.11;67.92;95494.66;10342457;28;20104;-74
2022/01/14 10:24:29;;;;;;;8.45;3.55;;;;;;;9.12;60.65;95474.41;10358818;28;20025;-74
2022/01/14 10:29:39;;;;;;;8.23;4.25;;;;;;;10.29;52.87;95472.69;10341998;28;20029;-75
2022/01/14 10:34:40;;;;;;;9.02;4.78;;;;;;;11.03;49.35;95466.63;10359669;28;20026;-74
2022/01/14 10:39:49;;;;;;;12.82;5.40;;;;;;;12.37;47.04;95450.34;10359172;28;20048;-74
2022/01/14 10:44:49;;;;;;;10.30;3.47;;;;;;;11.60;45.14;95454.34;10358495;28;20504;-73
2022/01/14 10:49:56;;;;;;;8.13;3.75;;;;;;;13.27;42.75;95432.81;10357854;28;20038;-78
2022/01/14 10:54:58;;;;;;;6.93;2.97;;;;;;;12.24;41.71;95422.03;10342262;28;20045;-80
2022/01/14 11:00:28;;;;;;;11.20;4.05;;;;;;;12.38;42.63;95417.72;10341173;28;20115;-78
2022/01/14 11:05:31;;;;;;;8.52;3.42;;;;;;;11.69;43.75;95418.84;10335951;28;20555;-72
2022/01/14 11:10:34;;;;;;;7.18;3.88;;;;;;;10.16;48.00;95412.09;10365690;28;20034;-72
2022/01/14 11:15:35;;;;;;;10.35;4.50;;;;;;;11.62;45.40;95386.78;10365400;28;20082;-73
2022/01/14 11:23:14;;;;;;;15.25;5.00;;;;;;;11.53;44.69;95380.28;10365462;28;20121;-79
2022/01/14 11:26:06;;;;;;;6.72;3.90;;;;;;;12.86;41.48;95341.94;10366778;28;20038;-74
2022/01/14 11:31:26;;;;;;;12.45;5.97;;;;;;;13.38;41.01;95348.06;10331904;28;20427;-73
2022/01/14 11:36:53;;;;;;;12.98;4.10;;;;;;;13.64;39.80;95343.34;10366275;28;20558;-78
2022/01/14 11:41:58;;;;;;;12.07;3.83;;;;;;;13.62;39.47;95315.81;10364743;28;20040;-77
2022/01/14 11:47:00;;;;;;;9.25;3.03;;;;;;;14.13;37.82;95306.56;10348629;28;20441;-75
2022/01/14 11:52:05;;;;;;;8.60;3.80;;;;;;;14.15;38.49;95293.59;10348476;28;20033;-74
2022/01/14 11:57:06;;;;;;;8.00;3.67;;;;;;;14.57;37.87;95298.66;10347637;28;20030;-72
2022/01/14 12:02:26;;;;;;;11.23;3.20;;;;;;;14.09;37.86;95285.81;10363882;28;20561;-76
2022/01/14 12:07:26;;;;;;;9.20;5.05;;;;;;;10.40;44.69;95289.84;10363933;28;20451;-73
2022/01/14 12:12:33;;;;;;;8.13;4.30;;;;;;;7.64;54.45;95278.91;10364080;28;20084;-73
2022/01/14 12:17:38;;;;;;;9.52;4.18;;;;;;;5.99;70.86;95290.75;10362556;28;20026;-75
2022/01/14 12:22:40;;;;;;;6.85;4.13;;;;;;;5.21;84.64;95284.50;10364647;28;20034;-77
2022/01/14 12:27:43;;;;;;;10.05;4.47;;;;;;;4.76;91.68;95283.81;10363286;28;20030;-81
2022/01/14 12:32:49;;;;;;;9.63;3.58;;;;;;;4.42;96.58;95279.88;10363120;28;20096;-78
2022/01/14 12:37:52;;;;;;;12.07;4.68;;;;;;;4.51;98.41;95262.59;10365033;28;20037;-77
2022/01/14 12:43:00;;;;;;;16.48;5.00;;;;;;;4.65;95.91;95255.28;10386408;28;20029;-71
2022/01/14 12:48:06;;;;;;;11.02;4.05;;;;;;;4.59;97.99;95254.31;10371085;28;20337;-71
2022/01/14 12:53:15;;;;;;;6.53;3.05;;;;;;;4.54;99.37;95243.50;10404227;28;20025;-75
2022/01/14 12:58:15;;;;;;;6.50;3.90;;;;;;;4.61;100.00;95230.94;10385629;28;20032;-77
2022/01/14 13:03:17;;;;;;;8.43;4.25;;;;;;;4.36;100.00;95224.91;10386296;28;20037;-76
2022/01/14 13:08:27;;;;;;;14.77;3.05;;;;;;;4.36;100.00;95219.56;10386385;28;20029;-77
2022/01/14 13:13:28;;;;;;;8.48;3.75;;;;;;;4.26;100.00;95217.44;10385438;28;20052;-72
2022/01/14 13:18:36;;;;;;;11.90;3.90;;;;;;;4.22;100.00;95224.22;10385896;28;20462;-78
2022/01/14 13:23:38;;;;;;;10.48;3.58;;;;;;;4.04;100.00;95209.06;10385006;28;20029;-77
2022/01/14 13:28:39;;;;;;;7.95;3.38;;;;;;;4.05;100.00;95206.19;10402178;28;20044;-72
2022/01/14 13:33:40;;;;;;;17.15;4.35;;;;;;;4.15;100.00;95202.19;10384988;28;20487;-74
2022/01/14 13:38:40;;;;;;;8.55;3.28;;;;;;;4.16;100.00;95196.66;10402482;28;20033;-77
2022/01/14 13:43:41;;;;;;;12.50;4.45;;;;;;;4.12;100.00;95195.47;10385067;28;20638;-79
2022/01/14 13:48:45;;;;;;;12.65;4.65;;;;;;;4.01;100.00;95196.19;10383634;28;20026;-72
2022/01/14 13:53:47;;;;;;;9.38;4.35;;;;;;;3.96;100.00;95193.38;10348365;28;20029;-74
2022/01/14 13:58:58;;;;;;;22.73;4.90;;;;;;;3.90;100.00;95185.25;10383418;28;20068;-71
2022/01/14 14:04:10;;;;;;;10.13;3.33;;;;;;;3.81;100.00;95177.78;10383418;28;20098;-70
2022/01/14 14:09:23;;;;;;;22.30;5.47;;;;;;;3.95;100.00;95179.28;10381396;28;20028;-76
2022/01/14 14:19:57;;;;;;;8.75;4.35;;;;;;;3.82;100.00;95156.28;10394829;28;20077;-72
2022/01/14 14:25:13;;;;;;;8.68;3.58;;;;;;;3.87;100.00;95156.44;10382712;28;20401;-71
2022/01/14 14:30:15;;;;;;;10.77;3.33;;;;;;;3.65;100.00;95149.91;10380633;28;20574;-72
2022/01/14 14:35:17;;;;;;;6.75;3.60;;;;;;;3.47;100.00;95163.97;10342406;28;20029;-76
2022/01/14 14:40:22;;;;;;;7.75;3.42;;;;;;;3.41;100.00;95163.00;10358247;28;20492;-71
2022/01/14 14:45:22;;;;;;;5.50;2.95;;;;;;;3.25;100.00;95151.91;10357481;28;20033;-71
2022/01/14 14:50:27;;;;;;;12.73;3.53;;;;;;;3.18;100.00;95161.78;10359164;28;20637;-71
2022/01/14 14:55:28;;;;;;;9.68;4.10;;;;;;;3.14;100.00;95144.63;10358768;28;20502;-71
2022/01/14 15:00:29;;;;;;;5.65;3.55;;;;;;;2.95;100.00;95142.94;10365594;28;20090;-76
2022/01/14 15:05:30;;;;;;;7.28;3.80;;;;;;;2.85;100.00;95119.53;10379461;28;20026;-77
2022/01/14 15:10:31;;;;;;;7.63;4.13;;;;;;;2.84;100.00;95117.88;10382147;28;20033;-76
2022/01/14 15:15:48;;;;;;;8.85;3.97;;;;;;;2.80;100.00;95130.75;10396136;28;20439;-76
2022/01/14 15:20:50;;;;;;;9.27;3.60;;;;;;;2.78;100.00;95122.22;10375007;28;20034;-76
2022/01/14 15:25:51;;;;;;;7.28;3.85;;;;;;;2.74;100.00;95124.47;10341494;28;20030;-71
2022/01/14 15:30:53;;;;;;;9.48;3.28;;;;;;;2.70;100.00;95120.63;10340528;28;20025;-76
2022/01/14 15:35:53;;;;;;;6.35;3.38;;;;;;;2.81;100.00;95131.59;10340331;28;20034;-71
2022/01/14 15:40:59;;;;;;;7.05;3.38;;;;;;;2.72;100.00;95121.25;10343920;28;20034;-76
2022/01/14 15:46:01;;;;;;;9.00;3.58;;;;;;;2.81;100.00;95131.59;10370015;28;20025;-77
2022/01/14 15:51:01;;;;;;;19.50;3.65;;;;;;;2.83;100.00;95111.78;10382144;28;20029;-71
2022/01/14 15:56:02;;;;;;;10.75;3.63;;;;;;;2.74;100.00;95119.16;10389136;28;20033;-75
2022/01/14 16:01:03;;;;;;;6.43;3.00;;;;;;;2.64;100.00;95118.84;10366342;28;20030;-76
2022/01/14 16:06:05;;;;;;;5.15;3.42;;;;;;;2.58;100.00;95118.88;10348864;28;20026;-71
2022/01/14 16:11:07;;;;;;;6.82;2.90;;;;;;;2.56;100.00;95116.44;10367046;28;20029;-74
2022/01/14 16:16:08;;;;;;;7.15;4.00;;;;;;;2.61;100.00;95113.97;10386335;28;20049;-71
2022/01/14 16:21:10;;;;;;;6.28;3.05;;;;;;;2.65;100.00;95107.19;10387037;28;20049;-76
2022/01/14 16:26:11;;;;;;;7.70;3.50;;;;;;;2.73;100.00;95117.56;10385929;28;20486;-71
2022/01/14 16:31:11;;;;;;;4.82;2.90;;;;;;;2.68;100.00;95114.72;10375648;28;20116;-75
2022/01/14 16:36:11;;;;;;;5.07;2.97;;;;;;;2.72;100.00;95101.81;10376515;28;20124;-72
2022/01/14 16:41:12;;;;;;;3.97;2.63;;;;;;;2.72;100.00;95109.78;10378935;28;20041;-73
2022/01/14 16:46:13;;;;;;;6.75;2.90;;;;;;;2.73;100.00;95100.81;10365284;28;20049;-77
2022/01/14 16:51:13;;;;;;;8.90;3.35;;;;;;;2.67;100.00;95096.38;10466294;22;20043;-71
2022/01/14 16:56:14;;;;;;;4.60;2.60;;;;;;;2.72;100.00;95088.56;10361877;28;20826;-74
2022/01/14 17:01:14;;;;;;;5.03;2.60;;;;;;;2.82;100.00;95099.53;10365318;28;20040;-73
2022/01/14 17:06:14;;;;;;;6.05;3.05;;;;;;;2.87;100.00;95070.47;10376207;28;20052;-71
2022/01/14 17:11:15;;;;;;;5.35;2.20;;;;;;;2.96;100.00;95086.97;10391826;28;20087;-75
2022/01/14 17:16:15;;;;;;;7.78;2.40;;;;;;;2.97;100.00;95104.50;10389792;28;20029;-71
2022/01/14 17:21:16;;;;;;;3.60;2.17;;;;;;;3.00;100.00;95088.16;10385160;28;20499;-75
2022/01/14 17:26:16;;;;;;;5.60;2.72;;;;;;;3.01;100.00;95096.94;10370301;28;20153;-70
2022/01/14 17:31:19;;;;;;;4.68;2.50;;;;;;;3.01;100.00;95113.66;10344468;28;20068;-76
2022/01/14 17:36:20;;;;;;;5.97;3.25;;;;;;;3.04;100.00;95101.81;10382539;28;20081;-71
2022/01/14 17:41:21;;;;;;;5.32;2.75;;;;;;;3.14;100.00;95112.78;10401722;28;20478;-71
2022/01/14 17:46:22;;;;;;;6.28;2.97;;;;;;;3.08;100.00;95103.00;10376185;28;20019;-71
2022/01/14 17:51:24;;;;;;;3.55;2.22;;;;;;;3.15;100.00;95109.06;10375308;28;20520;-71
2022/01/14 17:56:28;;;;;;;5.10;2.63;;;;;;;3.13;100.00;95099.72;10369173;28;20021;-77
2022/01/14 18:01:29;;;;;;;4.47;2.55;;;;;;;3.19;100.00;95098.81;10369928;28;20033;-72
2022/01/14 18:06:31;;;;;;;6.88;4.18;;;;;;;3.18;100.00;95092.72;10361767;28;20483;-71
2022/01/14 18:11:34;;;;;;;7.38;2.67;;;;;;;3.15;100.00;95081.69;10357282;28;20124;-72
2022/01/14 18:16:35;;;;;;;2.17;1.48;;;;;;;3.16;100.00;95065.53;10382148;28;20053;-72
2022/01/14 18:21:35;;;;;;;3.20;1.95;;;;;;;3.19;100.00;95066.97;10381869;28;20056;-76
2022/01/14 18:26:37;;;;;;;4.53;2.30;;;;;;;3.24;100.00;95059.97;10386411;28;20059;-77
2022/01/14 18:31:39;;;;;;;4.68;2.10;;;;;;;3.29;100.00;95053.19;10377883;28;20029;-73
2022/01/14 18:36:40;;;;;;;4.72;1.95;;;;;;;3.35;100.00;95046.97;10370283;28;20033;-76
2022/01/14 18:41:41;;;;;;;3.88;2.30;;;;;;;3.35;100.00;95047.81;10354578;28;20415;-70
2022/01/14 18:46:43;;;;;;;4.63;1.98;;;;;;;3.38;100.00;95068.63;10374841;28;20064;-77
2022/01/14 18:51:43;;;;;;;3.33;1.80;;;;;;;3.41;100.00;95065.50;10342615;28;20092;-76
2022/01/14 18:56:44;;;;;;;4.15;2.63;;;;;;;3.42;100.00;95053.06;10342910;28;20056;-76
2022/01/14 19:01:44;;;;;;;3.15;1.88;;;;;;;3.46;100.00;95048.94;10365827;28;20147;-76
2022/01/14 19:06:45;;;;;;;6.60;3.03;;;;;;;3.42;100.00;95055.72;10339039;28;20484;-72
2022/01/14 19:11:46;;;;;;;3.65;1.83;;;;;;;3.40;100.00;95052.44;10364354;28;20530;-77
2022/01/14 19:16:46;;;;;;;2.92;1.90;;;;;;;3.42;100.00;95053.84;10349812;28;20117;-72
2022/01/14 19:21:47;;;;;;;3.67;2.00;;;;;;;3.45;100.00;95054.44;10391724;28;20044;-71
2022/01/14 19:26:48;;;;;;;5.32;2.35;;;;;;;3.45;100.00;95039.31;10345095;28;20420;-74
2022/01/14 19:31:48;;;;;;;7.15;2.20;;;;;;;3.54;100.00;95043.28;10371357;28;20021;-75
2022/01/14 19:36:49;;;;;;;3.95;2.00;;;;;;;3.59;100.00;95029.38;10405210;28;20030;-76
2022/01/14 19:41:49;;;;;;;5.55;2.55;;;;;;;3.59;100.00;95026.72;10350812;28;20061;-72
2022/01/14 19:46:50;;;;;;;5.40;2.15;;;;;;;3.59;100.00;95042.66;10347174;28;20025;-75
2022/01/14 19:51:52;;;;;;;4.43;2.28;;;;;;;3.57;100.00;95023.44;10346373;28;20462;-73
2022/01/14 19:56:52;;;;;;;5.70;2.15;;;;;;;3.58;100.00;95025.88;10362962;28;20108;-76
2022/01/14 20:01:53;;;;;;;6.22;2.45;;;;;;;3.61;100.00;95024.63;10372577;28;20435;-73
2022/01/14 20:06:53;;;;;;;4.45;1.80;;;;;;;3.67;100.00;95009.63;10386017;28;20017;-73
2022/01/14 20:11:54;;;;;;;6.88;2.70;;;;;;;3.73;100.00;95011.41;10403060;28;20108;-74
2022/01/14 20:16:54;;;;;;;4.28;2.65;;;;;;;3.75;100.00;95006.66;10384987;28;20021;-73
2022/01/14 20:21:55;;;;;;;7.60;2.85;;;;;;;3.74;100.00;95023.66;10385663;28;20025;-72
2022/01/14 20:26:55;;;;;;;3.75;2.13;;;;;;;3.72;100.00;95012.44;10385184;28;20052;-74
2022/01/14 20:31:56;;;;;;;5.68;2.63;;;;;;;3.80;100.00;95017.47;10385672;28;20032;-70
2022/01/14 20:36:56;;;;;;;6.68;2.97;;;;;;;3.81;100.00;95010.28;10384179;28;20175;-71
2022/01/14 20:42:03;;;;;;;6.47;2.60;;;;;;;3.80;100.00;95009.47;10358488;28;20057;-72
2022/01/14 20:47:08;;;;;;;8.68;2.08;;;;;;;3.74;100.00;95031.63;10361216;28;20057;-71
2022/01/14 20:52:10;;;;;;;10.23;3.15;;;;;;;3.78;100.00;95022.16;10349357;28;20530;-72
2022/01/14 20:57:12;;;;;;;4.97;2.00;;;;;;;3.79;100.00;95023.81;10349807;28;20087;-72
2022/01/14 21:02:13;;;;;;;5.05;2.70;;;;;;;3.81;100.00;95016.44;10365940;28;20098;-76
2022/01/14 21:07:13;;;;;;;4.88;2.35;;;;;;;3.67;100.00;95009.63;10363021;28;20018;-73
2022/01/14 21:12:14;;;;;;;3.88;2.35;;;;;;;3.68;100.00;95005.94;10367581;28;20025;-71
2022/01/14 21:17:14;;;;;;;5.20;2.28;;;;;;;3.64;100.00;95013.53;10388583;28;20168;-75
2022/01/14 21:22:16;;;;;;;6.00;2.65;;;;;;;3.55;100.00;95009.56;10365331;28;20029;-72
2022/01/14 21:27:17;;;;;;;4.00;2.08;;;;;;;3.63;100.00;94995.16;10359555;28;20026;-77
2022/01/14 21:32:20;;;;;;;8.80;2.90;;;;;;;3.64;100.00;94983.50;10368097;28;20037;-73
2022/01/14 21:37:20;;;;;;;4.68;2.40;;;;;;;3.59;100.00;94990.31;10362187;28;20021;-71
2022/01/14 21:42:21;;;;;;;4.82;2.20;;;;;;;3.62;100.00;94988.25;10344694;28;20822;-71
2022/01/14 21:47:21;;;;;;;4.93;2.65;;;;;;;3.64;100.00;94984.31;10341045;28;20026;-72
2022/01/14 21:52:24;;;;;;;5.63;2.67;;;;;;;3.65;100.00;94998.44;10356718;28;20084;-72
2022/01/14 21:57:29;;;;;;;7.30;3.10;;;;;;;3.59;100.00;95003.59;10358636;28;20025;-73
2022/01/14 22:02:29;;;;;;;6.47;2.78;;;;;;;3.57;100.00;95002.19;10341893;28;20030;-75
2022/01/14 22:07:30;;;;;;;7.70;2.95;;;;;;;3.51;100.00;94990.59;10356715;28;20026;-75
2022/01/14 22:12:32;;;;;;;7.88;3.58;;;;;;;3.53;100.00;94993.84;10341718;28;20033;-72
2022/01/14 22:17:34;;;;;;;5.88;3.42;;;;;;;3.55;100.00;94983.81;10357097;28;20033;-75
2022/01/14 22:22:34;;;;;;;6.78;2.80;;;;;;;3.52;100.00;94984.25;10342003;28;20033;-72
2022/01/14 22:27:35;;;;;;;5.43;2.72;;;;;;;3.61;100.00;94986.63;10362133;28;20526;-72
2022/01/14 22:32:36;;;;;;;6.35;2.50;;;;;;;3.68;100.00;94977.50;10381535;28;20509;-75
2022/01/14 22:37:37;;;;;;;8.63;2.75;;;;;;;3.61;100.00;94989.28;10381372;28;20112;-76
2022/01/14 22:42:37;;;;;;;7.65;2.70;;;;;;;3.60;100.00;94983.16;10382163;28;20537;-73
2022/01/14 22:47:38;;;;;;;5.95;3.17;;;;;;;3.63;100.00;94981.88;10380793;28;20064;-78
2022/01/14 22:52:39;;;;;;;7.55;3.25;;;;;;;3.67;100.00;94989.19;10399871;28;20053;-73
2022/01/14 22:57:40;;;;;;;5.78;2.78;;;;;;;3.60;100.00;94977.84;10382638;28;20408;-72
2022/01/14 23:02:40;;;;;;;8.40;2.85;;;;;;;3.59;100.00;94974.34;10406639;28;20440;-73
2022/01/14 23:07:46;;;;;;;5.55;3.28;;;;;;;3.59;100.00;94989.50;10374097;28;20029;-71
2022/01/14 23:12:47;;;;;;;4.30;2.45;;;;;;;3.58;100.00;94977.25;10374250;28;20130;-73
2022/01/14 23:17:50;;;;;;;6.10;2.85;;;;;;;3.63;100.00;94989.84;10354052;28;20599;-72
2022/01/14 23:22:51;;;;;;;6.55;2.65;;;;;;;3.61;100.00;94981.31;10350401;28;20108;-72
2022/01/14 23:27:51;;;;;;;7.45;3.53;;;;;;;3.54;100.00;94978.72;10350740;28;20631;-74